sensor_id;sensor_type;location;lat;lon;timestamp;P1;durP1;ratioP1;P2;durP2;ratioP2
21315;SDS011;10817;55.820;13.030;2023-09-18T00:00:56;10.52;;;3.95;;
21315;SDS011;10817;55.820;13.030;2023-09-18T00:03:23;6.72;;;4.00;;
21315;SDS011;10817;55.820;13.030;2023-09-18T00:05:50;7.57;;;4.13;;
21315;SDS011;10817;55.820;13.030;2023-09-18T00:08:19;8.40;;;3.78;;
21315;SDS011;10817;55.820;13.030;2023-09-18T00:10:46;5.63;;;3.78;;
21315;SDS011;10817;55.820;13.030;2023-09-18T00:13:15;8.90;;;3.63;;
21315;SDS011;10817;55.820;13.030;2023-09-18T00:15:42;5.78;;;3.60;;
21315;SDS011;10817;55.820;13.030;2023-09-18T00:18:09;7.15;;;3.80;;
21315;SDS011;10817;55.820;13.030;2023-09-18T00:20:36;4.57;;;3.35;;
21315;SDS011;10817;55.820;13.030;2023-09-18T00:23:03;6.20;;;3.30;;
21315;SDS011;10817;55.820;13.030;2023-09-18T00:25:31;7.72;;;3.42;;
21315;SDS011;10817;55.820;13.030;2023-09-18T00:27:59;13.27;;;4.05;;
21315;SDS011;10817;55.820;13.030;2023-09-18T00:30:26;5.32;;;2.97;;
21315;SDS011;10817;55.820;13.030;2023-09-18T00:33:15;8.45;;;3.67;;
21315;SDS011;10817;55.820;13.030;2023-09-18T00:35:52;7.60;;;3.97;;
21315;SDS011;10817;55.820;13.030;2023-09-18T00:38:31;8.65;;;3.20;;
21315;SDS011;10817;55.820;13.030;2023-09-18T00:41:06;6.25;;;3.30;;
21315;SDS011;10817;55.820;13.030;2023-09-18T00:43:34;5.25;;;3.40;;
21315;SDS011;10817;55.820;13.030;2023-09-18T00:46:14;6.55;;;3.10;;
21315;SDS011;10817;55.820;13.030;2023-09-18T00:48:44;6.03;;;3.35;;
21315;SDS011;10817;55.820;13.030;2023-09-18T00:51:12;8.30;;;3.50;;
21315;SDS011;10817;55.820;13.030;2023-09-18T00:53:41;7.88;;;3.60;;
21315;SDS011;10817;55.820;13.030;2023-09-18T00:56:11;5.30;;;3.58;;
21315;SDS011;10817;55.820;13.030;2023-09-18T00:58:38;6.97;;;3.35;;
21315;SDS011;10817;55.820;13.030;2023-09-18T01:01:05;7.45;;;3.33;;
21315;SDS011;10817;55.820;13.030;2023-09-18T01:03:33;7.25;;;3.75;;
21315;SDS011;10817;55.820;13.030;2023-09-18T01:06:00;9.95;;;3.47;;
21315;SDS011;10817;55.820;13.030;2023-09-18T01:08:28;7.40;;;3.70;;
21315;SDS011;10817;55.820;13.030;2023-09-18T01:10:56;11.60;;;3.65;;
21315;SDS011;10817;55.820;13.030;2023-09-18T01:13:34;4.95;;;3.40;;
21315;SDS011;10817;55.820;13.030;2023-09-18T01:16:06;9.70;;;3.85;;
21315;SDS011;10817;55.820;13.030;2023-09-18T01:18:38;6.68;;;3.28;;
21315;SDS011;10817;55.820;13.030;2023-09-18T01:21:15;9.40;;;3.58;;
21315;SDS011;10817;55.820;13.030;2023-09-18T01:23:43;7.78;;;4.28;;
21315;SDS011;10817;55.820;13.030;2023-09-18T01:26:10;6.78;;;3.70;;
21315;SDS011;10817;55.820;13.030;2023-09-18T01:28:37;8.88;;;3.88;;
21315;SDS011;10817;55.820;13.030;2023-09-18T01:31:03;9.77;;;3.53;;
21315;SDS011;10817;55.820;13.030;2023-09-18T01:33:30;5.53;;;3.55;;
21315;SDS011;10817;55.820;13.030;2023-09-18T01:35:58;7.38;;;3.85;;
21315;SDS011;10817;55.820;13.030;2023-09-18T01:38:26;13.13;;;3.65;;
21315;SDS011;10817;55.820;13.030;2023-09-18T01:40:55;8.05;;;3.35;;
21315;SDS011;10817;55.820;13.030;2023-09-18T01:43:24;10.15;;;4.10;;
21315;SDS011;10817;55.820;13.030;2023-09-18T01:45:51;13.43;;;4.30;;
21315;SDS011;10817;55.820;13.030;2023-09-18T01:48:19;9.23;;;3.70;;
21315;SDS011;10817;55.820;13.030;2023-09-18T01:50:45;6.88;;;4.07;;
21315;SDS011;10817;55.820;13.030;2023-09-18T01:53:13;8.48;;;3.60;;
21315;SDS011;10817;55.820;13.030;2023-09-18T01:55:40;9.90;;;3.90;;
21315;SDS011;10817;55.820;13.030;2023-09-18T01:58:08;10.80;;;3.70;;
21315;SDS011;10817;55.820;13.030;2023-09-18T02:00:35;8.15;;;3.60;;
21315;SDS011;10817;55.820;13.030;2023-09-18T02:03:02;8.63;;;3.58;;
21315;SDS011;10817;55.820;13.030;2023-09-18T02:05:30;6.35;;;3.78;;
21315;SDS011;10817;55.820;13.030;2023-09-18T02:07:57;8.00;;;4.05;;
21315;SDS011;10817;55.820;13.030;2023-09-18T02:10:24;10.38;;;3.80;;
21315;SDS011;10817;55.820;13.030;2023-09-18T02:12:51;10.32;;;4.40;;
21315;SDS011;10817;55.820;13.030;2023-09-18T02:15:19;6.97;;;4.43;;
21315;SDS011;10817;55.820;13.030;2023-09-18T02:17:46;7.70;;;3.90;;
21315;SDS011;10817;55.820;13.030;2023-09-18T02:20:13;9.43;;;4.10;;
21315;SDS011;10817;55.820;13.030;2023-09-18T02:22:44;9.98;;;4.47;;
21315;SDS011;10817;55.820;13.030;2023-09-18T02:25:12;9.80;;;3.90;;
21315;SDS011;10817;55.820;13.030;2023-09-18T02:27:39;9.75;;;4.50;;
21315;SDS011;10817;55.820;13.030;2023-09-18T02:30:06;14.90;;;4.53;;
21315;SDS011;10817;55.820;13.030;2023-09-18T02:32:36;11.13;;;4.03;;
21315;SDS011;10817;55.820;13.030;2023-09-18T02:35:04;10.07;;;3.97;;
21315;SDS011;10817;55.820;13.030;2023-09-18T02:37:32;8.02;;;4.05;;
21315;SDS011;10817;55.820;13.030;2023-09-18T02:39:59;9.82;;;4.22;;
21315;SDS011;10817;55.820;13.030;2023-09-18T02:42:25;18.10;;;4.05;;
21315;SDS011;10817;55.820;13.030;2023-09-18T02:44:52;7.82;;;4.03;;
21315;SDS011;10817;55.820;13.030;2023-09-18T02:47:19;6.80;;;4.53;;
21315;SDS011;10817;55.820;13.030;2023-09-18T02:49:47;12.88;;;4.38;;
21315;SDS011;10817;55.820;13.030;2023-09-18T02:52:14;6.90;;;4.30;;
21315;SDS011;10817;55.820;13.030;2023-09-18T02:54:41;8.88;;;3.83;;
21315;SDS011;10817;55.820;13.030;2023-09-18T02:57:08;10.35;;;4.28;;
21315;SDS011;10817;55.820;13.030;2023-09-18T02:59:34;8.27;;;4.20;;
21315;SDS011;10817;55.820;13.030;2023-09-18T03:02:02;8.55;;;4.30;;
21315;SDS011;10817;55.820;13.030;2023-09-18T03:04:29;7.93;;;4.28;;
21315;SDS011;10817;55.820;13.030;2023-09-18T03:06:57;8.27;;;3.88;;
21315;SDS011;10817;55.820;13.030;2023-09-18T03:09:24;8.18;;;3.95;;
21315;SDS011;10817;55.820;13.030;2023-09-18T03:11:51;11.20;;;4.53;;
21315;SDS011;10817;55.820;13.030;2023-09-18T03:14:18;12.10;;;5.00;;
21315;SDS011;10817;55.820;13.030;2023-09-18T03:16:45;8.52;;;3.90;;
21315;SDS011;10817;55.820;13.030;2023-09-18T03:19:12;7.00;;;4.18;;
21315;SDS011;10817;55.820;13.030;2023-09-18T03:21:39;8.32;;;3.95;;
21315;SDS011;10817;55.820;13.030;2023-09-18T03:24:07;11.65;;;4.30;;
21315;SDS011;10817;55.820;13.030;2023-09-18T03:26:35;7.63;;;4.45;;
21315;SDS011;10817;55.820;13.030;2023-09-18T03:29:02;10.73;;;4.68;;
21315;SDS011;10817;55.820;13.030;2023-09-18T03:31:29;9.93;;;4.18;;
21315;SDS011;10817;55.820;13.030;2023-09-18T03:33:56;12.80;;;4.55;;
21315;SDS011;10817;55.820;13.030;2023-09-18T03:36:26;10.88;;;4.50;;
21315;SDS011;10817;55.820;13.030;2023-09-18T03:38:52;10.93;;;4.22;;
21315;SDS011;10817;55.820;13.030;2023-09-18T03:41:20;12.55;;;4.90;;
21315;SDS011;10817;55.820;13.030;2023-09-18T03:43:47;9.20;;;4.80;;
21315;SDS011;10817;55.820;13.030;2023-09-18T03:46:15;10.95;;;4.82;;
21315;SDS011;10817;55.820;13.030;2023-09-18T03:48:46;9.82;;;5.13;;
21315;SDS011;10817;55.820;13.030;2023-09-18T03:51:13;13.55;;;5.10;;
21315;SDS011;10817;55.820;13.030;2023-09-18T03:53:43;7.53;;;4.32;;
21315;SDS011;10817;55.820;13.030;2023-09-18T03:56:10;9.57;;;4.80;;
21315;SDS011;10817;55.820;13.030;2023-09-18T03:58:39;13.80;;;4.68;;
21315;SDS011;10817;55.820;13.030;2023-09-18T04:01:05;11.55;;;4.50;;
21315;SDS011;10817;55.820;13.030;2023-09-18T04:03:33;12.10;;;4.97;;
21315;SDS011;10817;55.820;13.030;2023-09-18T04:06:00;14.82;;;5.15;;
21315;SDS011;10817;55.820;13.030;2023-09-18T04:08:28;17.85;;;5.00;;
21315;SDS011;10817;55.820;13.030;2023-09-18T04:10:55;9.05;;;5.10;;
21315;SDS011;10817;55.820;13.030;2023-09-18T04:13:23;13.60;;;6.90;;
21315;SDS011;10817;55.820;13.030;2023-09-18T04:15:53;10.82;;;5.10;;
21315;SDS011;10817;55.820;13.030;2023-09-18T04:18:22;14.15;;;5.00;;
21315;SDS011;10817;55.820;13.030;2023-09-18T04:20:49;11.65;;;4.63;;
21315;SDS011;10817;55.820;13.030;2023-09-18T04:23:18;11.38;;;5.55;;
21315;SDS011;10817;55.820;13.030;2023-09-18T04:25:47;9.98;;;4.88;;
21315;SDS011;10817;55.820;13.030;2023-09-18T04:28:14;11.40;;;4.72;;
21315;SDS011;10817;55.820;13.030;2023-09-18T04:30:42;11.40;;;5.30;;
21315;SDS011;10817;55.820;13.030;2023-09-18T04:33:10;10.30;;;5.00;;
21315;SDS011;10817;55.820;13.030;2023-09-18T04:35:38;12.10;;;5.20;;
21315;SDS011;10817;55.820;13.030;2023-09-18T04:38:07;11.07;;;4.53;;
21315;SDS011;10817;55.820;13.030;2023-09-18T04:40:35;10.25;;;4.75;;
21315;SDS011;10817;55.820;13.030;2023-09-18T04:43:02;13.50;;;5.40;;
21315;SDS011;10817;55.820;13.030;2023-09-18T04:45:33;10.13;;;5.13;;
21315;SDS011;10817;55.820;13.030;2023-09-18T04:48:00;18.00;;;5.55;;
21315;SDS011;10817;55.820;13.030;2023-09-18T04:50:29;13.25;;;4.47;;
21315;SDS011;10817;55.820;13.030;2023-09-18T04:52:56;13.32;;;5.13;;
21315;SDS011;10817;55.820;13.030;2023-09-18T04:55:24;13.43;;;4.90;;
21315;SDS011;10817;55.820;13.030;2023-09-18T04:57:51;15.18;;;4.82;;
21315;SDS011;10817;55.820;13.030;2023-09-18T05:00:19;14.95;;;5.40;;
21315;SDS011;10817;55.820;13.030;2023-09-18T05:02:48;10.85;;;5.20;;
21315;SDS011;10817;55.820;13.030;2023-09-18T05:05:15;15.55;;;5.38;;
21315;SDS011;10817;55.820;13.030;2023-09-18T05:07:44;10.32;;;5.25;;
21315;SDS011;10817;55.820;13.030;2023-09-18T05:10:11;8.20;;;4.75;;
21315;SDS011;10817;55.820;13.030;2023-09-18T05:12:38;17.33;;;5.30;;
21315;SDS011;10817;55.820;13.030;2023-09-18T05:15:06;13.18;;;5.32;;
21315;SDS011;10817;55.820;13.030;2023-09-18T05:17:41;16.90;;;5.15;;
21315;SDS011;10817;55.820;13.030;2023-09-18T05:20:09;8.50;;;5.07;;
21315;SDS011;10817;55.820;13.030;2023-09-18T05:22:39;13.75;;;5.40;;
21315;SDS011;10817;55.820;13.030;2023-09-18T05:25:08;12.68;;;5.53;;
21315;SDS011;10817;55.820;13.030;2023-09-18T05:27:36;10.45;;;5.30;;
21315;SDS011;10817;55.820;13.030;2023-09-18T05:30:09;13.77;;;5.82;;
21315;SDS011;10817;55.820;13.030;2023-09-18T05:32:38;16.90;;;5.88;;
21315;SDS011;10817;55.820;13.030;2023-09-18T05:35:05;16.02;;;5.43;;
21315;SDS011;10817;55.820;13.030;2023-09-18T05:37:35;13.07;;;5.93;;
21315;SDS011;10817;55.820;13.030;2023-09-18T05:40:03;13.95;;;5.22;;
21315;SDS011;10817;55.820;13.030;2023-09-18T05:42:33;14.68;;;5.80;;
21315;SDS011;10817;55.820;13.030;2023-09-18T05:45:00;14.35;;;6.10;;
21315;SDS011;10817;55.820;13.030;2023-09-18T05:47:26;12.88;;;5.60;;
21315;SDS011;10817;55.820;13.030;2023-09-18T05:49:55;16.77;;;5.80;;
21315;SDS011;10817;55.820;13.030;2023-09-18T05:52:22;16.05;;;6.22;;
21315;SDS011;10817;55.820;13.030;2023-09-18T05:54:50;15.15;;;6.25;;
21315;SDS011;10817;55.820;13.030;2023-09-18T05:57:17;11.95;;;6.20;;
21315;SDS011;10817;55.820;13.030;2023-09-18T05:59:45;15.52;;;5.50;;
21315;SDS011;10817;55.820;13.030;2023-09-18T06:02:20;11.07;;;5.38;;
21315;SDS011;10817;55.820;13.030;2023-09-18T06:04:53;13.05;;;5.93;;
21315;SDS011;10817;55.820;13.030;2023-09-18T06:07:25;12.38;;;5.60;;
21315;SDS011;10817;55.820;13.030;2023-09-18T06:09:52;14.48;;;6.43;;
21315;SDS011;10817;55.820;13.030;2023-09-18T06:12:20;10.90;;;6.03;;
21315;SDS011;10817;55.820;13.030;2023-09-18T06:14:48;14.18;;;6.82;;
21315;SDS011;10817;55.820;13.030;2023-09-18T06:17:18;14.32;;;5.90;;
21315;SDS011;10817;55.820;13.030;2023-09-18T06:19:45;14.45;;;6.70;;
21315;SDS011;10817;55.820;13.030;2023-09-18T06:22:12;17.85;;;7.57;;
21315;SDS011;10817;55.820;13.030;2023-09-18T06:24:43;14.85;;;7.22;;
21315;SDS011;10817;55.820;13.030;2023-09-18T06:27:10;19.23;;;7.75;;
21315;SDS011;10817;55.820;13.030;2023-09-18T06:29:39;16.90;;;7.88;;
21315;SDS011;10817;55.820;13.030;2023-09-18T06:32:09;17.10;;;7.72;;
21315;SDS011;10817;55.820;13.030;2023-09-18T06:34:36;18.90;;;8.25;;
21315;SDS011;10817;55.820;13.030;2023-09-18T06:37:12;19.70;;;7.72;;
21315;SDS011;10817;55.820;13.030;2023-09-18T06:39:38;13.45;;;6.80;;
21315;SDS011;10817;55.820;13.030;2023-09-18T06:42:06;14.88;;;7.63;;
21315;SDS011;10817;55.820;13.030;2023-09-18T06:44:43;18.40;;;7.35;;
21315;SDS011;10817;55.820;13.030;2023-09-18T06:47:14;15.07;;;7.38;;
21315;SDS011;10817;55.820;13.030;2023-09-18T06:49:41;11.77;;;6.63;;
21315;SDS011;10817;55.820;13.030;2023-09-18T06:52:08;14.98;;;7.32;;
21315;SDS011;10817;55.820;13.030;2023-09-18T06:54:35;16.17;;;7.75;;
21315;SDS011;10817;55.820;13.030;2023-09-18T06:57:04;14.65;;;7.38;;
21315;SDS011;10817;55.820;13.030;2023-09-18T06:59:34;17.85;;;8.10;;
21315;SDS011;10817;55.820;13.030;2023-09-18T07:02:00;14.40;;;8.25;;
21315;SDS011;10817;55.820;13.030;2023-09-18T07:04:29;14.25;;;7.75;;
21315;SDS011;10817;55.820;13.030;2023-09-18T07:06:57;15.77;;;8.55;;
21315;SDS011;10817;55.820;13.030;2023-09-18T07:09:26;17.50;;;8.85;;
21315;SDS011;10817;55.820;13.030;2023-09-18T07:12:08;15.73;;;7.50;;
21315;SDS011;10817;55.820;13.030;2023-09-18T07:14:37;13.50;;;7.90;;
21315;SDS011;10817;55.820;13.030;2023-09-18T07:17:04;13.20;;;7.72;;
21315;SDS011;10817;55.820;13.030;2023-09-18T07:19:35;17.83;;;8.18;;
21315;SDS011;10817;55.820;13.030;2023-09-18T07:22:02;16.85;;;8.15;;
21315;SDS011;10817;55.820;13.030;2023-09-18T07:24:32;14.80;;;8.32;;
21315;SDS011;10817;55.820;13.030;2023-09-18T07:26:59;12.45;;;7.72;;
21315;SDS011;10817;55.820;13.030;2023-09-18T07:29:27;16.25;;;8.10;;
21315;SDS011;10817;55.820;13.030;2023-09-18T07:31:54;14.13;;;8.43;;
21315;SDS011;10817;55.820;13.030;2023-09-18T07:34:21;18.08;;;8.85;;
21315;SDS011;10817;55.820;13.030;2023-09-18T07:36:49;12.45;;;8.07;;
21315;SDS011;10817;55.820;13.030;2023-09-18T07:39:20;13.43;;;8.35;;
21315;SDS011;10817;55.820;13.030;2023-09-18T07:41:47;13.43;;;7.65;;
21315;SDS011;10817;55.820;13.030;2023-09-18T07:44:18;11.98;;;7.72;;
21315;SDS011;10817;55.820;13.030;2023-09-18T07:46:45;10.45;;;7.32;;
21315;SDS011;10817;55.820;13.030;2023-09-18T07:49:12;16.55;;;8.48;;
21315;SDS011;10817;55.820;13.030;2023-09-18T07:51:39;21.60;;;8.45;;
21315;SDS011;10817;55.820;13.030;2023-09-18T07:54:07;16.95;;;7.80;;
21315;SDS011;10817;55.820;13.030;2023-09-18T07:56:34;14.18;;;7.70;;
21315;SDS011;10817;55.820;13.030;2023-09-18T07:59:01;11.98;;;8.00;;
21315;SDS011;10817;55.820;13.030;2023-09-18T08:01:28;13.65;;;8.70;;
21315;SDS011;10817;55.820;13.030;2023-09-18T08:03:56;22.27;;;8.55;;
21315;SDS011;10817;55.820;13.030;2023-09-18T08:06:24;18.13;;;7.43;;
21315;SDS011;10817;55.820;13.030;2023-09-18T08:08:51;10.90;;;7.55;;
21315;SDS011;10817;55.820;13.030;2023-09-18T08:11:19;11.45;;;7.90;;
21315;SDS011;10817;55.820;13.030;2023-09-18T08:13:46;16.27;;;8.10;;
21315;SDS011;10817;55.820;13.030;2023-09-18T08:16:13;13.85;;;8.02;;
21315;SDS011;10817;55.820;13.030;2023-09-18T08:18:40;15.15;;;7.78;;
21315;SDS011;10817;55.820;13.030;2023-09-18T08:21:07;13.45;;;8.18;;
21315;SDS011;10817;55.820;13.030;2023-09-18T08:23:34;16.38;;;7.57;;
21315;SDS011;10817;55.820;13.030;2023-09-18T08:26:01;13.65;;;8.00;;
21315;SDS011;10817;55.820;13.030;2023-09-18T08:28:30;11.88;;;7.38;;
21315;SDS011;10817;55.820;13.030;2023-09-18T08:30:57;14.77;;;7.40;;
21315;SDS011;10817;55.820;13.030;2023-09-18T08:33:24;12.77;;;6.95;;
21315;SDS011;10817;55.820;13.030;2023-09-18T08:35:51;14.98;;;8.25;;
21315;SDS011;10817;55.820;13.030;2023-09-18T08:38:18;13.32;;;7.80;;
21315;SDS011;10817;55.820;13.030;2023-09-18T08:40:44;14.07;;;8.05;;
21315;SDS011;10817;55.820;13.030;2023-09-18T08:43:12;11.57;;;7.43;;
21315;SDS011;10817;55.820;13.030;2023-09-18T08:45:45;13.93;;;7.80;;
21315;SDS011;10817;55.820;13.030;2023-09-18T08:48:13;12.63;;;7.55;;
21315;SDS011;10817;55.820;13.030;2023-09-18T08:50:40;12.45;;;7.47;;
21315;SDS011;10817;55.820;13.030;2023-09-18T08:53:09;12.13;;;7.65;;
21315;SDS011;10817;55.820;13.030;2023-09-18T08:55:36;12.80;;;7.40;;
21315;SDS011;10817;55.820;13.030;2023-09-18T08:58:06;10.60;;;6.90;;
21315;SDS011;10817;55.820;13.030;2023-09-18T09:00:33;14.57;;;8.35;;
21315;SDS011;10817;55.820;13.030;2023-09-18T09:03:04;16.50;;;7.95;;
21315;SDS011;10817;55.820;13.030;2023-09-18T09:05:31;11.10;;;7.38;;
21315;SDS011;10817;55.820;13.030;2023-09-18T09:07:59;14.90;;;7.43;;
21315;SDS011;10817;55.820;13.030;2023-09-18T09:10:26;14.48;;;7.88;;
21315;SDS011;10817;55.820;13.030;2023-09-18T09:12:54;14.48;;;7.55;;
21315;SDS011;10817;55.820;13.030;2023-09-18T09:15:20;12.57;;;6.57;;
21315;SDS011;10817;55.820;13.030;2023-09-18T09:17:48;14.73;;;6.97;;
21315;SDS011;10817;55.820;13.030;2023-09-18T09:20:17;13.13;;;6.63;;
21315;SDS011;10817;55.820;13.030;2023-09-18T09:22:44;15.23;;;7.00;;
21315;SDS011;10817;55.820;13.030;2023-09-18T09:25:21;13.20;;;7.10;;
21315;SDS011;10817;55.820;13.030;2023-09-18T09:27:51;12.27;;;6.78;;
21315;SDS011;10817;55.820;13.030;2023-09-18T09:30:19;11.60;;;7.03;;
21315;SDS011;10817;55.820;13.030;2023-09-18T09:32:47;10.50;;;6.60;;
21315;SDS011;10817;55.820;13.030;2023-09-18T09:35:22;11.32;;;6.85;;
21315;SDS011;10817;55.820;13.030;2023-09-18T09:37:52;10.52;;;6.45;;
21315;SDS011;10817;55.820;13.030;2023-09-18T09:40:22;9.82;;;6.20;;
21315;SDS011;10817;55.820;13.030;2023-09-18T09:42:54;11.85;;;7.05;;
21315;SDS011;10817;55.820;13.030;2023-09-18T09:45:26;8.02;;;6.15;;
21315;SDS011;10817;55.820;13.030;2023-09-18T09:47:54;10.23;;;6.55;;
21315;SDS011;10817;55.820;13.030;2023-09-18T09:50:23;9.75;;;6.70;;
21315;SDS011;10817;55.820;13.030;2023-09-18T09:52:52;9.32;;;6.07;;
21315;SDS011;10817;55.820;13.030;2023-09-18T09:55:22;11.95;;;6.57;;
21315;SDS011;10817;55.820;13.030;2023-09-18T09:57:54;14.13;;;7.10;;
21315;SDS011;10817;55.820;13.030;2023-09-18T10:00:32;11.48;;;7.10;;
21315;SDS011;10817;55.820;13.030;2023-09-18T10:03:08;14.05;;;7.20;;
21315;SDS011;10817;55.820;13.030;2023-09-18T10:05:38;12.35;;;6.53;;
21315;SDS011;10817;55.820;13.030;2023-09-18T10:08:11;13.18;;;6.63;;
21315;SDS011;10817;55.820;13.030;2023-09-18T10:10:43;8.85;;;6.13;;
21315;SDS011;10817;55.820;13.030;2023-09-18T10:13:15;12.50;;;6.55;;
21315;SDS011;10817;55.820;13.030;2023-09-18T10:15:44;10.13;;;6.72;;
21315;SDS011;10817;55.820;13.030;2023-09-18T10:18:24;11.18;;;7.18;;
21315;SDS011;10817;55.820;13.030;2023-09-18T10:20:57;8.57;;;6.13;;
21315;SDS011;10817;55.820;13.030;2023-09-18T10:23:38;12.30;;;6.35;;
21315;SDS011;10817;55.820;13.030;2023-09-18T10:26:16;13.98;;;5.72;;
21315;SDS011;10817;55.820;13.030;2023-09-18T10:28:50;8.70;;;6.35;;
21315;SDS011;10817;55.820;13.030;2023-09-18T10:31:33;12.93;;;6.32;;
21315;SDS011;10817;55.820;13.030;2023-09-18T10:34:02;11.75;;;6.07;;
21315;SDS011;10817;55.820;13.030;2023-09-18T10:36:38;10.05;;;5.85;;
21315;SDS011;10817;55.820;13.030;2023-09-18T10:39:07;10.10;;;5.43;;
21315;SDS011;10817;55.820;13.030;2023-09-18T10:41:38;9.60;;;5.93;;
21315;SDS011;10817;55.820;13.030;2023-09-18T10:44:05;11.35;;;5.55;;
21315;SDS011;10817;55.820;13.030;2023-09-18T10:46:33;16.88;;;6.18;;
21315;SDS011;10817;55.820;13.030;2023-09-18T10:49:00;8.15;;;5.18;;
21315;SDS011;10817;55.820;13.030;2023-09-18T10:51:29;8.82;;;5.72;;
21315;SDS011;10817;55.820;13.030;2023-09-18T10:54:04;11.00;;;5.78;;
21315;SDS011;10817;55.820;13.030;2023-09-18T10:56:40;8.65;;;4.93;;
21315;SDS011;10817;55.820;13.030;2023-09-18T10:59:45;7.25;;;4.70;;
21315;SDS011;10817;55.820;13.030;2023-09-18T11:02:13;5.55;;;4.65;;
21315;SDS011;10817;55.820;13.030;2023-09-18T11:04:41;7.70;;;4.82;;
21315;SDS011;10817;55.820;13.030;2023-09-18T11:07:09;6.40;;;4.95;;
21315;SDS011;10817;55.820;13.030;2023-09-18T11:09:47;9.35;;;4.28;;
21315;SDS011;10817;55.820;13.030;2023-09-18T11:12:15;6.25;;;4.47;;
21315;SDS011;10817;55.820;13.030;2023-09-18T11:14:44;11.00;;;4.28;;
21315;SDS011;10817;55.820;13.030;2023-09-18T11:20:09;9.43;;;4.80;;
21315;SDS011;10817;55.820;13.030;2023-09-18T11:22:47;6.90;;;4.72;;
21315;SDS011;10817;55.820;13.030;2023-09-18T11:25:35;9.63;;;4.95;;
21315;SDS011;10817;55.820;13.030;2023-09-18T11:28:04;10.75;;;4.20;;
21315;SDS011;10817;55.820;13.030;2023-09-18T11:30:32;9.68;;;4.63;;
21315;SDS011;10817;55.820;13.030;2023-09-18T11:33:15;5.70;;;4.30;;
21315;SDS011;10817;55.820;13.030;2023-09-18T11:36:01;5.70;;;4.07;;
21315;SDS011;10817;55.820;13.030;2023-09-18T11:41:24;10.00;;;4.47;;
21315;SDS011;10817;55.820;13.030;2023-09-18T11:43:54;9.15;;;3.95;;
21315;SDS011;10817;55.820;13.030;2023-09-18T11:46:58;5.82;;;4.22;;
21315;SDS011;10817;55.820;13.030;2023-09-18T11:49:25;10.63;;;4.57;;
21315;SDS011;10817;55.820;13.030;2023-09-18T11:51:57;9.43;;;4.30;;
21315;SDS011;10817;55.820;13.030;2023-09-18T11:54:26;9.20;;;4.47;;
21315;SDS011;10817;55.820;13.030;2023-09-18T11:56:55;8.65;;;4.32;;
21315;SDS011;10817;55.820;13.030;2023-09-18T11:59:33;17.02;;;4.63;;
21315;SDS011;10817;55.820;13.030;2023-09-18T12:02:13;11.68;;;3.92;;
21315;SDS011;10817;55.820;13.030;2023-09-18T12:04:54;7.45;;;4.43;;
21315;SDS011;10817;55.820;13.030;2023-09-18T12:07:21;16.08;;;4.57;;
21315;SDS011;10817;55.820;13.030;2023-09-18T12:09:54;13.45;;;4.60;;
21315;SDS011;10817;55.820;13.030;2023-09-18T12:12:25;8.68;;;3.78;;
21315;SDS011;10817;55.820;13.030;2023-09-18T12:14:54;9.90;;;3.97;;
21315;SDS011;10817;55.820;13.030;2023-09-18T12:17:21;4.70;;;3.72;;
21315;SDS011;10817;55.820;13.030;2023-09-18T12:19:51;12.23;;;3.63;;
21315;SDS011;10817;55.820;13.030;2023-09-18T12:22:23;6.63;;;3.67;;
21315;SDS011;10817;55.820;13.030;2023-09-18T12:24:51;9.07;;;3.58;;
21315;SDS011;10817;55.820;13.030;2023-09-18T12:27:17;7.93;;;3.88;;
21315;SDS011;10817;55.820;13.030;2023-09-18T12:29:46;7.25;;;3.67;;
21315;SDS011;10817;55.820;13.030;2023-09-18T12:32:13;11.88;;;4.00;;
21315;SDS011;10817;55.820;13.030;2023-09-18T12:34:40;7.45;;;3.67;;
21315;SDS011;10817;55.820;13.030;2023-09-18T12:37:07;5.50;;;3.58;;
21315;SDS011;10817;55.820;13.030;2023-09-18T12:39:36;8.55;;;3.72;;
21315;SDS011;10817;55.820;13.030;2023-09-18T12:42:03;5.70;;;3.70;;
21315;SDS011;10817;55.820;13.030;2023-09-18T12:44:31;7.43;;;4.18;;
21315;SDS011;10817;55.820;13.030;2023-09-18T12:46:59;8.55;;;4.00;;
21315;SDS011;10817;55.820;13.030;2023-09-18T12:49:29;8.80;;;4.10;;
21315;SDS011;10817;55.820;13.030;2023-09-18T12:51:59;9.85;;;4.03;;
21315;SDS011;10817;55.820;13.030;2023-09-18T12:54:36;10.13;;;3.70;;
21315;SDS011;10817;55.820;13.030;2023-09-18T12:57:04;17.67;;;4.00;;
21315;SDS011;10817;55.820;13.030;2023-09-18T12:59:32;12.60;;;4.13;;
21315;SDS011;10817;55.820;13.030;2023-09-18T13:02:02;8.85;;;3.78;;
21315;SDS011;10817;55.820;13.030;2023-09-18T13:04:30;8.70;;;3.75;;
21315;SDS011;10817;55.820;13.030;2023-09-18T13:07:04;8.63;;;4.30;;
21315;SDS011;10817;55.820;13.030;2023-09-18T13:09:33;11.70;;;3.42;;
21315;SDS011;10817;55.820;13.030;2023-09-18T13:12:05;5.97;;;3.47;;
21315;SDS011;10817;55.820;13.030;2023-09-18T13:17:40;13.52;;;3.72;;
21315;SDS011;10817;55.820;13.030;2023-09-18T13:20:12;12.98;;;3.72;;
21315;SDS011;10817;55.820;13.030;2023-09-18T13:22:40;10.15;;;3.60;;
21315;SDS011;10817;55.820;13.030;2023-09-18T13:25:08;8.57;;;4.00;;
21315;SDS011;10817;55.820;13.030;2023-09-18T13:27:36;5.80;;;3.50;;
21315;SDS011;10817;55.820;13.030;2023-09-18T13:30:05;7.60;;;3.67;;
21315;SDS011;10817;55.820;13.030;2023-09-18T13:32:34;9.30;;;3.53;;
21315;SDS011;10817;55.820;13.030;2023-09-18T13:35:06;13.13;;;4.18;;
21315;SDS011;10817;55.820;13.030;2023-09-18T13:37:37;5.68;;;3.72;;
21315;SDS011;10817;55.820;13.030;2023-09-18T13:40:10;5.78;;;3.75;;
21315;SDS011;10817;55.820;13.030;2023-09-18T13:42:39;11.77;;;4.07;;
21315;SDS011;10817;55.820;13.030;2023-09-18T13:45:14;7.35;;;4.05;;
21315;SDS011;10817;55.820;13.030;2023-09-18T13:47:42;6.82;;;3.90;;
21315;SDS011;10817;55.820;13.030;2023-09-18T13:50:13;9.65;;;3.83;;
21315;SDS011;10817;55.820;13.030;2023-09-18T13:52:42;8.40;;;3.65;;
21315;SDS011;10817;55.820;13.030;2023-09-18T13:55:08;7.80;;;3.80;;
21315;SDS011;10817;55.820;13.030;2023-09-18T13:57:35;8.95;;;3.85;;
21315;SDS011;10817;55.820;13.030;2023-09-18T14:00:05;12.90;;;4.30;;
21315;SDS011;10817;55.820;13.030;2023-09-18T14:02:42;9.00;;;4.35;;
21315;SDS011;10817;55.820;13.030;2023-09-18T14:05:14;8.68;;;4.05;;
21315;SDS011;10817;55.820;13.030;2023-09-18T14:07:41;7.40;;;4.20;;
21315;SDS011;10817;55.820;13.030;2023-09-18T14:10:09;9.27;;;4.00;;
21315;SDS011;10817;55.820;13.030;2023-09-18T14:12:36;9.75;;;4.38;;
21315;SDS011;10817;55.820;13.030;2023-09-18T14:15:04;6.05;;;3.95;;
21315;SDS011;10817;55.820;13.030;2023-09-18T14:17:31;6.38;;;4.22;;
21315;SDS011;10817;55.820;13.030;2023-09-18T14:19:58;7.40;;;4.20;;
21315;SDS011;10817;55.820;13.030;2023-09-18T14:22:27;12.30;;;4.45;;
21315;SDS011;10817;55.820;13.030;2023-09-18T14:24:54;13.43;;;5.38;;
21315;SDS011;10817;55.820;13.030;2023-09-18T14:27:21;8.73;;;4.80;;
21315;SDS011;10817;55.820;13.030;2023-09-18T14:29:54;5.05;;;4.32;;
21315;SDS011;10817;55.820;13.030;2023-09-18T14:32:23;8.65;;;4.20;;
21315;SDS011;10817;55.820;13.030;2023-09-18T14:34:51;11.55;;;4.60;;
21315;SDS011;10817;55.820;13.030;2023-09-18T14:37:18;7.50;;;4.57;;
21315;SDS011;10817;55.820;13.030;2023-09-18T14:47:11;10.18;;;4.82;;
21315;SDS011;10817;55.820;13.030;2023-09-18T14:49:38;6.35;;;5.00;;
21315;SDS011;10817;55.820;13.030;2023-09-18T14:52:05;7.07;;;4.38;;
21315;SDS011;10817;55.820;13.030;2023-09-18T14:54:33;9.00;;;4.78;;